Singleton, South Carolina
Current Conditions -  °F | °C
As of 1:58 AM on Friday 19 Dec 2014 (Local Time) from KMMT Reporting Station
Scattered Clouds Scattered Clouds  
Wind Chill: 38°   Ceiling: Unl
Heat Index: 38°   Visibility: 10mi
Dew Point: 36°   Wind: 2mph
Humidity: 91%   Direction: 340°NNW
Pressure: 30.09"   Gusts: NA
Location:  33.7122°N, 80.8747°W
Report Text: KMMT 190658Z AUTO 34002KT 10SM SCT055 03/02 A3009 RMK AO2 SLP193 T00340020
Loading
Personal Weather Stations






























Interactive Weather Map New forecast layout! Learn more

10-Day Weather Forecast

Advertisements
Track Severe Weather on mobile